sensor_id;sensor_type;location;lat;lon;timestamp;P1;durP1;ratioP1;P2;durP2;ratioP2
23995;SDS011;12207;50.076;8.848;2023-12-07T00:01:05;322.13;;;73.75;;
23995;SDS011;12207;50.076;8.848;2023-12-07T00:03:31;323.50;;;73.78;;
23995;SDS011;12207;50.076;8.848;2023-12-07T00:05:57;335.35;;;75.15;;
23995;SDS011;12207;50.076;8.848;2023-12-07T00:08:26;345.52;;;76.18;;
23995;SDS011;12207;50.076;8.848;2023-12-07T00:10:52;350.23;;;74.55;;
23995;SDS011;12207;50.076;8.848;2023-12-07T00:13:18;318.50;;;72.10;;
23995;SDS011;12207;50.076;8.848;2023-12-07T00:15:44;323.52;;;74.07;;
23995;SDS011;12207;50.076;8.848;2023-12-07T00:18:10;315.42;;;71.22;;
23995;SDS011;12207;50.076;8.848;2023-12-07T00:20:36;318.35;;;71.97;;
23995;SDS011;12207;50.076;8.848;2023-12-07T00:23:02;323.27;;;71.30;;
23995;SDS011;12207;50.076;8.848;2023-12-07T00:25:28;335.23;;;73.53;;
23995;SDS011;12207;50.076;8.848;2023-12-07T00:27:55;342.52;;;73.95;;
23995;SDS011;12207;50.076;8.848;2023-12-07T00:30:21;329.05;;;73.03;;
23995;SDS011;12207;50.076;8.848;2023-12-07T00:32:47;323.98;;;72.28;;
23995;SDS011;12207;50.076;8.848;2023-12-07T00:35:13;316.88;;;71.65;;
23995;SDS011;12207;50.076;8.848;2023-12-07T00:37:41;324.05;;;73.07;;
23995;SDS011;12207;50.076;8.848;2023-12-07T00:40:07;340.95;;;73.78;;
23995;SDS011;12207;50.076;8.848;2023-12-07T00:42:34;316.67;;;71.50;;
23995;SDS011;12207;50.076;8.848;2023-12-07T00:45:00;323.20;;;72.18;;
23995;SDS011;12207;50.076;8.848;2023-12-07T00:47:26;317.85;;;71.32;;
23995;SDS011;12207;50.076;8.848;2023-12-07T00:49:52;331.23;;;73.50;;
23995;SDS011;12207;50.076;8.848;2023-12-07T00:52:18;347.27;;;74.25;;
23995;SDS011;12207;50.076;8.848;2023-12-07T00:54:44;322.90;;;72.07;;
23995;SDS011;12207;50.076;8.848;2023-12-07T00:57:13;311.27;;;71.55;;
23995;SDS011;12207;50.076;8.848;2023-12-07T00:59:39;320.20;;;72.45;;
23995;SDS011;12207;50.076;8.848;2023-12-07T01:02:06;303.83;;;70.03;;
23995;SDS011;12207;50.076;8.848;2023-12-07T01:04:32;319.45;;;72.15;;
23995;SDS011;12207;50.076;8.848;2023-12-07T01:06:58;323.20;;;72.55;;
23995;SDS011;12207;50.076;8.848;2023-12-07T01:09:25;315.30;;;72.07;;
23995;SDS011;12207;50.076;8.848;2023-12-07T01:11:51;318.15;;;72.03;;
23995;SDS011;12207;50.076;8.848;2023-12-07T01:14:18;357.65;;;75.53;;
23995;SDS011;12207;50.076;8.848;2023-12-07T01:16:44;349.45;;;75.28;;
23995;SDS011;12207;50.076;8.848;2023-12-07T01:19:11;329.95;;;73.20;;
23995;SDS011;12207;50.076;8.848;2023-12-07T01:21:40;322.13;;;72.95;;
23995;SDS011;12207;50.076;8.848;2023-12-07T01:24:09;327.10;;;73.68;;
23995;SDS011;12207;50.076;8.848;2023-12-07T01:26:38;312.50;;;71.32;;
23995;SDS011;12207;50.076;8.848;2023-12-07T01:29:05;327.48;;;73.70;;
23995;SDS011;12207;50.076;8.848;2023-12-07T01:31:34;329.95;;;73.32;;
23995;SDS011;12207;50.076;8.848;2023-12-07T01:34:00;322.15;;;72.80;;
23995;SDS011;12207;50.076;8.848;2023-12-07T01:36:27;318.35;;;72.72;;
23995;SDS011;12207;50.076;8.848;2023-12-07T01:38:53;307.42;;;72.55;;
23995;SDS011;12207;50.076;8.848;2023-12-07T01:41:19;356.42;;;76.30;;
23995;SDS011;12207;50.076;8.848;2023-12-07T01:43:48;307.13;;;72.57;;
23995;SDS011;12207;50.076;8.848;2023-12-07T01:46:14;318.73;;;72.10;;
23995;SDS011;12207;50.076;8.848;2023-12-07T01:48:44;303.88;;;71.88;;
23995;SDS011;12207;50.076;8.848;2023-12-07T01:51:14;311.52;;;71.60;;
23995;SDS011;12207;50.076;8.848;2023-12-07T01:53:41;304.48;;;71.65;;
23995;SDS011;12207;50.076;8.848;2023-12-07T01:56:08;319.30;;;72.88;;
23995;SDS011;12207;50.076;8.848;2023-12-07T01:58:37;314.20;;;72.72;;
23995;SDS011;12207;50.076;8.848;2023-12-07T02:01:03;315.73;;;72.68;;
23995;SDS011;12207;50.076;8.848;2023-12-07T02:03:34;298.75;;;69.82;;
23995;SDS011;12207;50.076;8.848;2023-12-07T02:06:00;303.98;;;71.68;;
23995;SDS011;12207;50.076;8.848;2023-12-07T02:08:27;317.88;;;71.75;;
23995;SDS011;12207;50.076;8.848;2023-12-07T02:10:54;300.42;;;70.30;;
23995;SDS011;12207;50.076;8.848;2023-12-07T02:13:20;348.67;;;74.82;;
23995;SDS011;12207;50.076;8.848;2023-12-07T02:15:47;312.30;;;70.72;;
23995;SDS011;12207;50.076;8.848;2023-12-07T02:18:27;307.75;;;70.45;;
23995;SDS011;12207;50.076;8.848;2023-12-07T02:23:50;282.67;;;67.88;;
23995;SDS011;12207;50.076;8.848;2023-12-07T02:26:20;307.73;;;70.40;;
23995;SDS011;12207;50.076;8.848;2023-12-07T02:28:48;326.13;;;72.00;;
23995;SDS011;12207;50.076;8.848;2023-12-07T02:31:14;309.60;;;71.28;;
23995;SDS011;12207;50.076;8.848;2023-12-07T02:33:40;309.45;;;71.03;;
23995;SDS011;12207;50.076;8.848;2023-12-07T02:36:06;301.38;;;69.15;;
23995;SDS011;12207;50.076;8.848;2023-12-07T02:38:33;298.77;;;68.80;;
23995;SDS011;12207;50.076;8.848;2023-12-07T02:41:01;297.08;;;69.22;;
23995;SDS011;12207;50.076;8.848;2023-12-07T02:43:28;309.00;;;71.40;;
23995;SDS011;12207;50.076;8.848;2023-12-07T02:45:54;295.63;;;69.57;;
23995;SDS011;12207;50.076;8.848;2023-12-07T02:48:21;310.38;;;72.88;;
23995;SDS011;12207;50.076;8.848;2023-12-07T02:50:47;306.75;;;70.07;;
23995;SDS011;12207;50.076;8.848;2023-12-07T02:53:13;294.13;;;69.72;;
23995;SDS011;12207;50.076;8.848;2023-12-07T02:55:39;297.13;;;69.40;;
23995;SDS011;12207;50.076;8.848;2023-12-07T02:58:05;301.92;;;68.10;;
23995;SDS011;12207;50.076;8.848;2023-12-07T03:00:31;306.27;;;70.15;;
23995;SDS011;12207;50.076;8.848;2023-12-07T03:02:57;287.38;;;67.68;;
23995;SDS011;12207;50.076;8.848;2023-12-07T03:05:24;304.05;;;69.53;;
23995;SDS011;12207;50.076;8.848;2023-12-07T03:07:50;299.25;;;69.03;;
23995;SDS011;12207;50.076;8.848;2023-12-07T03:10:16;291.73;;;67.20;;
23995;SDS011;12207;50.076;8.848;2023-12-07T03:12:45;297.92;;;68.20;;
23995;SDS011;12207;50.076;8.848;2023-12-07T03:15:11;280.10;;;66.13;;
23995;SDS011;12207;50.076;8.848;2023-12-07T03:17:38;330.27;;;71.15;;
23995;SDS011;12207;50.076;8.848;2023-12-07T03:20:04;312.60;;;70.43;;
23995;SDS011;12207;50.076;8.848;2023-12-07T03:22:31;301.00;;;68.53;;
23995;SDS011;12207;50.076;8.848;2023-12-07T03:24:57;285.30;;;67.07;;
23995;SDS011;12207;50.076;8.848;2023-12-07T03:27:23;290.33;;;68.35;;
23995;SDS011;12207;50.076;8.848;2023-12-07T03:29:49;303.60;;;69.72;;
23995;SDS011;12207;50.076;8.848;2023-12-07T03:32:16;283.67;;;68.50;;
23995;SDS011;12207;50.076;8.848;2023-12-07T03:34:42;299.83;;;69.30;;
23995;SDS011;12207;50.076;8.848;2023-12-07T03:37:08;303.80;;;69.45;;
23995;SDS011;12207;50.076;8.848;2023-12-07T03:39:34;305.67;;;69.97;;
23995;SDS011;12207;50.076;8.848;2023-12-07T03:42:00;298.85;;;69.75;;
23995;SDS011;12207;50.076;8.848;2023-12-07T03:44:27;310.77;;;70.28;;
23995;SDS011;12207;50.076;8.848;2023-12-07T03:46:53;292.65;;;68.57;;
23995;SDS011;12207;50.076;8.848;2023-12-07T03:49:20;296.65;;;69.10;;
23995;SDS011;12207;50.076;8.848;2023-12-07T03:51:46;295.73;;;69.75;;
23995;SDS011;12207;50.076;8.848;2023-12-07T03:54:12;296.67;;;69.10;;
23995;SDS011;12207;50.076;8.848;2023-12-07T03:56:38;296.55;;;69.53;;
23995;SDS011;12207;50.076;8.848;2023-12-07T03:59:05;293.38;;;68.93;;
23995;SDS011;12207;50.076;8.848;2023-12-07T04:01:32;301.23;;;70.43;;
23995;SDS011;12207;50.076;8.848;2023-12-07T04:03:58;315.52;;;70.90;;
23995;SDS011;12207;50.076;8.848;2023-12-07T04:06:25;312.77;;;70.00;;
23995;SDS011;12207;50.076;8.848;2023-12-07T04:08:52;297.17;;;68.88;;
23995;SDS011;12207;50.076;8.848;2023-12-07T04:11:18;306.88;;;69.72;;
23995;SDS011;12207;50.076;8.848;2023-12-07T04:13:44;294.15;;;68.78;;
23995;SDS011;12207;50.076;8.848;2023-12-07T04:16:11;316.75;;;70.82;;
23995;SDS011;12207;50.076;8.848;2023-12-07T04:18:37;309.80;;;97.82;;
23995;SDS011;12207;50.076;8.848;2023-12-07T04:21:04;285.45;;;67.10;;
23995;SDS011;12207;50.076;8.848;2023-12-07T04:23:33;285.35;;;67.65;;
23995;SDS011;12207;50.076;8.848;2023-12-07T04:25:59;280.60;;;65.97;;
23995;SDS011;12207;50.076;8.848;2023-12-07T04:28:25;294.58;;;67.93;;
23995;SDS011;12207;50.076;8.848;2023-12-07T04:30:52;290.88;;;67.50;;
23995;SDS011;12207;50.076;8.848;2023-12-07T04:33:18;307.48;;;68.45;;
23995;SDS011;12207;50.076;8.848;2023-12-07T04:35:44;293.77;;;67.53;;
23995;SDS011;12207;50.076;8.848;2023-12-07T04:38:10;282.52;;;66.72;;
23995;SDS011;12207;50.076;8.848;2023-12-07T04:40:36;274.48;;;66.93;;
23995;SDS011;12207;50.076;8.848;2023-12-07T04:43:02;281.00;;;65.90;;
23995;SDS011;12207;50.076;8.848;2023-12-07T04:45:29;290.65;;;66.47;;
23995;SDS011;12207;50.076;8.848;2023-12-07T04:47:55;293.48;;;67.63;;
23995;SDS011;12207;50.076;8.848;2023-12-07T04:50:22;288.10;;;68.03;;
23995;SDS011;12207;50.076;8.848;2023-12-07T04:52:48;321.63;;;70.30;;
23995;SDS011;12207;50.076;8.848;2023-12-07T04:55:14;274.63;;;66.40;;
23995;SDS011;12207;50.076;8.848;2023-12-07T04:57:41;277.90;;;66.20;;
23995;SDS011;12207;50.076;8.848;2023-12-07T05:00:07;289.67;;;66.47;;
23995;SDS011;12207;50.076;8.848;2023-12-07T05:02:38;293.63;;;68.13;;
23995;SDS011;12207;50.076;8.848;2023-12-07T05:05:04;270.75;;;65.68;;
23995;SDS011;12207;50.076;8.848;2023-12-07T05:07:31;304.08;;;69.30;;
23995;SDS011;12207;50.076;8.848;2023-12-07T05:09:57;290.38;;;68.93;;
23995;SDS011;12207;50.076;8.848;2023-12-07T05:12:23;284.30;;;67.53;;
23995;SDS011;12207;50.076;8.848;2023-12-07T05:14:49;310.77;;;69.47;;
23995;SDS011;12207;50.076;8.848;2023-12-07T05:17:16;317.63;;;70.85;;
23995;SDS011;12207;50.076;8.848;2023-12-07T05:19:43;286.17;;;67.20;;
23995;SDS011;12207;50.076;8.848;2023-12-07T05:22:10;333.15;;;72.07;;
23995;SDS011;12207;50.076;8.848;2023-12-07T05:24:36;305.10;;;68.97;;
23995;SDS011;12207;50.076;8.848;2023-12-07T05:27:02;279.08;;;66.85;;
23995;SDS011;12207;50.076;8.848;2023-12-07T05:29:28;289.77;;;67.72;;
23995;SDS011;12207;50.076;8.848;2023-12-07T05:31:55;294.42;;;69.45;;
23995;SDS011;12207;50.076;8.848;2023-12-07T05:34:21;282.00;;;67.53;;
23995;SDS011;12207;50.076;8.848;2023-12-07T05:36:47;314.58;;;71.15;;
23995;SDS011;12207;50.076;8.848;2023-12-07T05:39:13;272.05;;;66.93;;
23995;SDS011;12207;50.076;8.848;2023-12-07T05:41:39;320.15;;;70.72;;
23995;SDS011;12207;50.076;8.848;2023-12-07T05:44:05;324.10;;;71.35;;
23995;SDS011;12207;50.076;8.848;2023-12-07T05:46:31;286.05;;;66.90;;
23995;SDS011;12207;50.076;8.848;2023-12-07T05:49:00;306.05;;;69.45;;
23995;SDS011;12207;50.076;8.848;2023-12-07T05:51:26;286.70;;;67.05;;
23995;SDS011;12207;50.076;8.848;2023-12-07T05:53:52;300.52;;;68.93;;
23995;SDS011;12207;50.076;8.848;2023-12-07T05:56:18;294.27;;;68.40;;
23995;SDS011;12207;50.076;8.848;2023-12-07T05:58:47;282.23;;;67.95;;
23995;SDS011;12207;50.076;8.848;2023-12-07T06:01:16;306.63;;;69.10;;
23995;SDS011;12207;50.076;8.848;2023-12-07T06:03:43;276.38;;;66.40;;
23995;SDS011;12207;50.076;8.848;2023-12-07T06:06:10;307.38;;;69.55;;
23995;SDS011;12207;50.076;8.848;2023-12-07T06:08:37;303.92;;;68.40;;
23995;SDS011;12207;50.076;8.848;2023-12-07T06:11:03;294.40;;;67.10;;
23995;SDS011;12207;50.076;8.848;2023-12-07T06:13:32;280.08;;;66.60;;
23995;SDS011;12207;50.076;8.848;2023-12-07T06:15:58;288.77;;;68.07;;
23995;SDS011;12207;50.076;8.848;2023-12-07T06:18:26;279.88;;;66.43;;
23995;SDS011;12207;50.076;8.848;2023-12-07T06:20:52;276.00;;;65.30;;
23995;SDS011;12207;50.076;8.848;2023-12-07T06:23:18;296.70;;;67.43;;
23995;SDS011;12207;50.076;8.848;2023-12-07T06:25:45;285.17;;;66.43;;
23995;SDS011;12207;50.076;8.848;2023-12-07T06:28:11;284.17;;;66.40;;
23995;SDS011;12207;50.076;8.848;2023-12-07T06:30:37;292.55;;;67.28;;
23995;SDS011;12207;50.076;8.848;2023-12-07T06:33:04;297.67;;;68.10;;
23995;SDS011;12207;50.076;8.848;2023-12-07T06:35:30;278.67;;;67.18;;
23995;SDS011;12207;50.076;8.848;2023-12-07T06:37:59;278.00;;;66.30;;
23995;SDS011;12207;50.076;8.848;2023-12-07T06:40:25;294.20;;;66.72;;
23995;SDS011;12207;50.076;8.848;2023-12-07T06:42:51;295.50;;;67.57;;
23995;SDS011;12207;50.076;8.848;2023-12-07T06:45:17;300.33;;;67.03;;
23995;SDS011;12207;50.076;8.848;2023-12-07T06:47:43;282.70;;;66.22;;
23995;SDS011;12207;50.076;8.848;2023-12-07T06:50:09;272.10;;;65.80;;
23995;SDS011;12207;50.076;8.848;2023-12-07T06:52:36;312.08;;;70.07;;
23995;SDS011;12207;50.076;8.848;2023-12-07T06:55:02;283.05;;;65.57;;
23995;SDS011;12207;50.076;8.848;2023-12-07T06:57:29;296.35;;;69.28;;
23995;SDS011;12207;50.076;8.848;2023-12-07T06:59:55;294.38;;;67.57;;
23995;SDS011;12207;50.076;8.848;2023-12-07T07:02:21;298.27;;;67.65;;
23995;SDS011;12207;50.076;8.848;2023-12-07T07:04:48;340.00;;;72.38;;
23995;SDS011;12207;50.076;8.848;2023-12-07T07:07:15;310.67;;;69.97;;
23995;SDS011;12207;50.076;8.848;2023-12-07T07:09:41;364.35;;;76.25;;
23995;SDS011;12207;50.076;8.848;2023-12-07T07:12:07;283.88;;;66.38;;
23995;SDS011;12207;50.076;8.848;2023-12-07T07:14:34;305.10;;;68.97;;
23995;SDS011;12207;50.076;8.848;2023-12-07T07:17:00;319.02;;;71.85;;
23995;SDS011;12207;50.076;8.848;2023-12-07T07:19:26;317.02;;;70.13;;
23995;SDS011;12207;50.076;8.848;2023-12-07T07:21:52;281.17;;;67.75;;
23995;SDS011;12207;50.076;8.848;2023-12-07T07:24:19;315.80;;;71.10;;
23995;SDS011;12207;50.076;8.848;2023-12-07T07:26:45;313.38;;;70.72;;
23995;SDS011;12207;50.076;8.848;2023-12-07T07:29:11;297.50;;;69.07;;
23995;SDS011;12207;50.076;8.848;2023-12-07T07:31:38;301.88;;;69.70;;
23995;SDS011;12207;50.076;8.848;2023-12-07T07:34:04;297.58;;;67.63;;
23995;SDS011;12207;50.076;8.848;2023-12-07T07:36:30;287.90;;;67.75;;
23995;SDS011;12207;50.076;8.848;2023-12-07T07:38:57;289.83;;;68.03;;
23995;SDS011;12207;50.076;8.848;2023-12-07T07:41:23;307.73;;;70.38;;
23995;SDS011;12207;50.076;8.848;2023-12-07T07:43:49;316.15;;;70.78;;
23995;SDS011;12207;50.076;8.848;2023-12-07T07:46:15;299.40;;;70.10;;
23995;SDS011;12207;50.076;8.848;2023-12-07T07:48:42;293.15;;;68.88;;
23995;SDS011;12207;50.076;8.848;2023-12-07T07:51:08;291.38;;;68.78;;
23995;SDS011;12207;50.076;8.848;2023-12-07T07:53:34;308.58;;;70.45;;
23995;SDS011;12207;50.076;8.848;2023-12-07T07:56:00;308.10;;;70.63;;
23995;SDS011;12207;50.076;8.848;2023-12-07T07:58:26;284.75;;;68.22;;
23995;SDS011;12207;50.076;8.848;2023-12-07T08:00:53;291.65;;;68.50;;
23995;SDS011;12207;50.076;8.848;2023-12-07T08:03:22;305.13;;;70.85;;
23995;SDS011;12207;50.076;8.848;2023-12-07T08:05:48;293.20;;;70.68;;
23995;SDS011;12207;50.076;8.848;2023-12-07T08:08:14;323.45;;;73.93;;
23995;SDS011;12207;50.076;8.848;2023-12-07T08:10:40;313.45;;;72.85;;
23995;SDS011;12207;50.076;8.848;2023-12-07T08:13:06;305.50;;;70.03;;
23995;SDS011;12207;50.076;8.848;2023-12-07T08:15:33;312.00;;;71.50;;
23995;SDS011;12207;50.076;8.848;2023-12-07T08:18:02;308.83;;;71.72;;
23995;SDS011;12207;50.076;8.848;2023-12-07T08:20:28;312.60;;;72.63;;
23995;SDS011;12207;50.076;8.848;2023-12-07T08:22:54;304.20;;;71.53;;
23995;SDS011;12207;50.076;8.848;2023-12-07T08:25:20;312.70;;;70.65;;
23995;SDS011;12207;50.076;8.848;2023-12-07T08:27:47;320.30;;;71.80;;
23995;SDS011;12207;50.076;8.848;2023-12-07T08:30:13;313.77;;;71.40;;
23995;SDS011;12207;50.076;8.848;2023-12-07T08:32:39;315.00;;;71.80;;
23995;SDS011;12207;50.076;8.848;2023-12-07T08:35:06;321.40;;;71.30;;
23995;SDS011;12207;50.076;8.848;2023-12-07T08:37:33;304.38;;;69.35;;
23995;SDS011;12207;50.076;8.848;2023-12-07T08:40:01;314.83;;;69.50;;
23995;SDS011;12207;50.076;8.848;2023-12-07T08:42:28;304.58;;;68.05;;
23995;SDS011;12207;50.076;8.848;2023-12-07T08:44:57;307.30;;;69.38;;
23995;SDS011;12207;50.076;8.848;2023-12-07T08:47:23;298.73;;;68.60;;
23995;SDS011;12207;50.076;8.848;2023-12-07T08:49:52;307.45;;;71.68;;
23995;SDS011;12207;50.076;8.848;2023-12-07T08:52:18;305.95;;;70.25;;
23995;SDS011;12207;50.076;8.848;2023-12-07T08:54:44;327.45;;;71.95;;
23995;SDS011;12207;50.076;8.848;2023-12-07T08:57:11;319.92;;;72.57;;
23995;SDS011;12207;50.076;8.848;2023-12-07T08:59:40;311.67;;;70.18;;
23995;SDS011;12207;50.076;8.848;2023-12-07T09:02:07;331.70;;;71.70;;
23995;SDS011;12207;50.076;8.848;2023-12-07T09:04:33;334.65;;;72.75;;
23995;SDS011;12207;50.076;8.848;2023-12-07T09:06:59;310.95;;;70.97;;
23995;SDS011;12207;50.076;8.848;2023-12-07T09:09:25;322.60;;;72.35;;
23995;SDS011;12207;50.076;8.848;2023-12-07T09:11:51;323.40;;;71.80;;
23995;SDS011;12207;50.076;8.848;2023-12-07T09:14:18;325.85;;;72.35;;
23995;SDS011;12207;50.076;8.848;2023-12-07T09:16:44;317.98;;;71.68;;
23995;SDS011;12207;50.076;8.848;2023-12-07T09:19:14;334.75;;;73.47;;
23995;SDS011;12207;50.076;8.848;2023-12-07T09:21:40;317.10;;;72.50;;
23995;SDS011;12207;50.076;8.848;2023-12-07T09:24:06;347.35;;;74.65;;
23995;SDS011;12207;50.076;8.848;2023-12-07T09:26:33;321.92;;;72.80;;
23995;SDS011;12207;50.076;8.848;2023-12-07T09:28:59;319.90;;;70.88;;
23995;SDS011;12207;50.076;8.848;2023-12-07T09:31:26;324.48;;;71.63;;
23995;SDS011;12207;50.076;8.848;2023-12-07T09:33:52;325.65;;;71.57;;
23995;SDS011;12207;50.076;8.848;2023-12-07T09:36:24;309.38;;;70.60;;
23995;SDS011;12207;50.076;8.848;2023-12-07T09:38:52;323.58;;;71.95;;
23995;SDS011;12207;50.076;8.848;2023-12-07T09:41:19;316.50;;;70.70;;
23995;SDS011;12207;50.076;8.848;2023-12-07T09:43:45;308.20;;;70.82;;
23995;SDS011;12207;50.076;8.848;2023-12-07T09:46:11;322.65;;;71.57;;
23995;SDS011;12207;50.076;8.848;2023-12-07T09:48:39;336.13;;;73.50;;
23995;SDS011;12207;50.076;8.848;2023-12-07T09:51:09;320.60;;;71.95;;
23995;SDS011;12207;50.076;8.848;2023-12-07T09:53:36;320.00;;;71.82;;
23995;SDS011;12207;50.076;8.848;2023-12-07T09:56:05;334.15;;;73.63;;
23995;SDS011;12207;50.076;8.848;2023-12-07T09:58:31;339.08;;;73.72;;
23995;SDS011;12207;50.076;8.848;2023-12-07T10:00:57;334.75;;;73.78;;
23995;SDS011;12207;50.076;8.848;2023-12-07T10:03:23;344.40;;;76.03;;
23995;SDS011;12207;50.076;8.848;2023-12-07T10:05:57;330.10;;;73.85;;
23995;SDS011;12207;50.076;8.848;2023-12-07T10:08:25;342.40;;;74.13;;
23995;SDS011;12207;50.076;8.848;2023-12-07T10:11:05;342.00;;;74.00;;
23995;SDS011;12207;50.076;8.848;2023-12-07T10:13:36;338.25;;;75.03;;
23995;SDS011;12207;50.076;8.848;2023-12-07T10:16:12;345.67;;;75.13;;
23995;SDS011;12207;50.076;8.848;2023-12-07T10:18:41;332.85;;;73.93;;
23995;SDS011;12207;50.076;8.848;2023-12-07T10:21:07;336.77;;;74.18;;
23995;SDS011;12207;50.076;8.848;2023-12-07T10:23:35;330.50;;;73.25;;
23995;SDS011;12207;50.076;8.848;2023-12-07T10:26:05;339.00;;;73.15;;
23995;SDS011;12207;50.076;8.848;2023-12-07T10:28:33;351.83;;;76.55;;
23995;SDS011;12207;50.076;8.848;2023-12-07T10:31:04;339.92;;;74.78;;
23995;SDS011;12207;50.076;8.848;2023-12-07T10:33:34;342.88;;;74.63;;
23995;SDS011;12207;50.076;8.848;2023-12-07T10:36:02;345.30;;;74.93;;
23995;SDS011;12207;50.076;8.848;2023-12-07T10:38:29;348.25;;;74.53;;
23995;SDS011;12207;50.076;8.848;2023-12-07T10:41:04;336.65;;;73.60;;
23995;SDS011;12207;50.076;8.848;2023-12-07T10:43:35;348.65;;;75.03;;
23995;SDS011;12207;50.076;8.848;2023-12-07T10:46:04;383.63;;;79.10;;
23995;SDS011;12207;50.076;8.848;2023-12-07T10:48:32;326.92;;;72.95;;
23995;SDS011;12207;50.076;8.848;2023-12-07T10:51:00;341.45;;;74.60;;
23995;SDS011;12207;50.076;8.848;2023-12-07T10:53:34;347.38;;;74.68;;
23995;SDS011;12207;50.076;8.848;2023-12-07T10:56:05;331.85;;;73.45;;
23995;SDS011;12207;50.076;8.848;2023-12-07T10:58:38;338.08;;;73.20;;
23995;SDS011;12207;50.076;8.848;2023-12-07T11:01:10;348.95;;;74.50;;
23995;SDS011;12207;50.076;8.848;2023-12-07T11:03:39;338.77;;;73.50;;
23995;SDS011;12207;50.076;8.848;2023-12-07T11:06:06;345.80;;;73.88;;
23995;SDS011;12207;50.076;8.848;2023-12-07T11:08:38;350.20;;;75.60;;
23995;SDS011;12207;50.076;8.848;2023-12-07T11:11:22;343.55;;;75.53;;
23995;SDS011;12207;50.076;8.848;2023-12-07T11:13:59;337.85;;;74.50;;
23995;SDS011;12207;50.076;8.848;2023-12-07T11:16:37;362.92;;;77.05;;
23995;SDS011;12207;50.076;8.848;2023-12-07T11:19:43;364.20;;;76.50;;
23995;SDS011;12207;50.076;8.848;2023-12-07T11:22:16;352.20;;;76.50;;
23995;SDS011;12207;50.076;8.848;2023-12-07T11:24:54;344.80;;;75.22;;
23995;SDS011;12207;50.076;8.848;2023-12-07T11:27:28;356.58;;;75.93;;
23995;SDS011;12207;50.076;8.848;2023-12-07T11:29:58;342.45;;;75.57;;
23995;SDS011;12207;50.076;8.848;2023-12-07T11:32:27;348.52;;;75.32;;
23995;SDS011;12207;50.076;8.848;2023-12-07T11:34:54;364.55;;;76.38;;
23995;SDS011;12207;50.076;8.848;2023-12-07T11:37:59;321.30;;;71.90;;
23995;SDS011;12207;50.076;8.848;2023-12-07T11:40:27;326.52;;;72.97;;
23995;SDS011;12207;50.076;8.848;2023-12-07T11:42:56;346.13;;;74.22;;
23995;SDS011;12207;50.076;8.848;2023-12-07T11:48:13;387.38;;;79.57;;
23995;SDS011;12207;50.076;8.848;2023-12-07T11:53:25;368.63;;;78.35;;
23995;SDS011;12207;50.076;8.848;2023-12-07T11:55:56;347.23;;;74.72;;
23995;SDS011;12207;50.076;8.848;2023-12-07T11:58:27;334.17;;;76.72;;
23995;SDS011;12207;50.076;8.848;2023-12-07T12:00:55;416.23;;;83.10;;
23995;SDS011;12207;50.076;8.848;2023-12-07T12:03:25;347.15;;;75.60;;
23995;SDS011;12207;50.076;8.848;2023-12-07T12:05:52;377.63;;;76.97;;
23995;SDS011;12207;50.076;8.848;2023-12-07T12:08:20;368.60;;;76.40;;
23995;SDS011;12207;50.076;8.848;2023-12-07T12:10:46;346.98;;;74.70;;
23995;SDS011;12207;50.076;8.848;2023-12-07T12:13:15;330.67;;;73.00;;
23995;SDS011;12207;50.076;8.848;2023-12-07T12:15:41;337.70;;;73.30;;
23995;SDS011;12207;50.076;8.848;2023-12-07T12:18:08;339.02;;;73.25;;
23995;SDS011;12207;50.076;8.848;2023-12-07T12:20:34;334.00;;;72.38;;
23995;SDS011;12207;50.076;8.848;2023-12-07T12:23:01;329.85;;;72.53;;
23995;SDS011;12207;50.076;8.848;2023-12-07T12:25:27;336.38;;;73.32;;
23995;SDS011;12207;50.076;8.848;2023-12-07T12:27:59;344.02;;;73.70;;
23995;SDS011;12207;50.076;8.848;2023-12-07T12:30:28;360.73;;;76.85;;
23995;SDS011;12207;50.076;8.848;2023-12-07T12:32:55;348.52;;;76.30;;
23995;SDS011;12207;50.076;8.848;2023-12-07T12:35:22;345.15;;;74.72;;
23995;SDS011;12207;50.076;8.848;2023-12-07T12:37:48;348.42;;;75.28;;
23995;SDS011;12207;50.076;8.848;2023-12-07T12:40:16;331.25;;;72.70;;
23995;SDS011;12207;50.076;8.848;2023-12-07T12:42:50;342.30;;;73.75;;
23995;SDS011;12207;50.076;8.848;2023-12-07T12:45:18;338.85;;;74.00;;
23995;SDS011;12207;50.076;8.848;2023-12-07T12:47:44;327.50;;;73.30;;
23995;SDS011;12207;50.076;8.848;2023-12-07T12:50:12;343.00;;;74.25;;
23995;SDS011;12207;50.076;8.848;2023-12-07T12:52:57;325.58;;;73.65;;
23995;SDS011;12207;50.076;8.848;2023-12-07T12:55:28;344.42;;;75.72;;
23995;SDS011;12207;50.076;8.848;2023-12-07T12:58:00;326.77;;;72.75;;
23995;SDS011;12207;50.076;8.848;2023-12-07T13:00:29;336.88;;;73.93;;
23995;SDS011;12207;50.076;8.848;2023-12-07T13:03:03;317.52;;;72.40;;
23995;SDS011;12207;50.076;8.848;2023-12-07T13:05:30;321.38;;;72.85;;
23995;SDS011;12207;50.076;8.848;2023-12-07T13:07:58;324.15;;;72.28;;
23995;SDS011;12207;50.076;8.848;2023-12-07T13:10:25;343.80;;;74.88;;
23995;SDS011;12207;50.076;8.848;2023-12-07T13:12:51;386.48;;;80.22;;
23995;SDS011;12207;50.076;8.848;2023-12-07T13:15:17;358.52;;;77.57;;
23995;SDS011;12207;50.076;8.848;2023-12-07T13:17:44;355.98;;;75.28;;
23995;SDS011;12207;50.076;8.848;2023-12-07T13:20:10;327.55;;;72.65;;
23995;SDS011;12207;50.076;8.848;2023-12-07T13:22:39;313.33;;;70.82;;
23995;SDS011;12207;50.076;8.848;2023-12-07T13:25:06;331.15;;;72.82;;
23995;SDS011;12207;50.076;8.848;2023-12-07T13:27:33;309.70;;;71.13;;
23995;SDS011;12207;50.076;8.848;2023-12-07T13:29:59;319.00;;;71.75;;
23995;SDS011;12207;50.076;8.848;2023-12-07T13:32:26;321.77;;;72.82;;
23995;SDS011;12207;50.076;8.848;2023-12-07T13:34:52;317.73;;;71.30;;
23995;SDS011;12207;50.076;8.848;2023-12-07T13:37:18;352.42;;;74.63;;
23995;SDS011;12207;50.076;8.848;2023-12-07T13:39:47;377.13;;;77.88;;
23995;SDS011;12207;50.076;8.848;2023-12-07T13:42:20;328.80;;;73.75;;
23995;SDS011;12207;50.076;8.848;2023-12-07T13:44:46;334.25;;;74.10;;
23995;SDS011;12207;50.076;8.848;2023-12-07T13:47:15;365.60;;;76.25;;
23995;SDS011;12207;50.076;8.848;2023-12-07T13:49:52;308.92;;;69.72;;
23995;SDS011;12207;50.076;8.848;2023-12-07T13:52:18;329.52;;;73.40;;
23995;SDS011;12207;50.076;8.848;2023-12-07T13:54:44;340.48;;;74.32;;
23995;SDS011;12207;50.076;8.848;2023-12-07T13:57:10;346.75;;;74.45;;
23995;SDS011;12207;50.076;8.848;2023-12-07T13:59:37;335.13;;;73.55;;
23995;SDS011;12207;50.076;8.848;2023-12-07T14:02:04;332.00;;;73.68;;
23995;SDS011;12207;50.076;8.848;2023-12-07T14:04:31;332.83;;;73.80;;
23995;SDS011;12207;50.076;8.848;2023-12-07T14:07:11;350.35;;;76.40;;
23995;SDS011;12207;50.076;8.848;2023-12-07T14:09:39;334.27;;;73.85;;
23995;SDS011;12207;50.076;8.848;2023-12-07T14:12:08;353.23;;;76.63;;
23995;SDS011;12207;50.076;8.848;2023-12-07T14:14:37;339.35;;;74.68;;
23995;SDS011;12207;50.076;8.848;2023-12-07T14:17:08;357.48;;;77.72;;
23995;SDS011;12207;50.076;8.848;2023-12-07T14:19:35;362.13;;;77.68;;